AirNav   Everest Fuels
 
 785 users online  

5XS8 L Davis Ranch Airport
Brackettville, Texas, USA

GOING TO BRACKETTVILLE?


FAA INFORMATION EFFECTIVE 10 SEPTEMBER 2020

Location

FAA Identifier: 5XS8
Lat/Long: 29-30-13.3300N 100-17-44.3900W
29-30.222167N 100-17.739833W
29.5037028,-100.2956639
(estimated)
Elevation: 1390 ft. / 424 m (estimated)
Variation: 08E (1985)
From city: 15 miles NE of BRACKETTVILLE, TX
Time zone: UTC -5 (UTC -6 during Standard Time)
Zip code: 78832

Airport Operations

Airport use: Private use. Permission required prior to landing
Activation date: 05/1949
Control tower: no
ARTCC: HOUSTON CENTER
FSS: SAN ANGELO FLIGHT SERVICE STATION
Attendance: UNATNDD
Wind indicator: yes
Segmented circle: no

Nearby radio navigation aids

VOR radial/distance  VOR name  Freq  Var
DLFr064/26.3LAUGHLIN VORTAC114.4007E
RSGr170/30.7ROCKSPRINGS VORTAC114.5510E

 
NDB name  Hdg/Dist  Freq  Var  ID
SPOFFORD010/22.635608EPFO .--. ..-. ---
LA FONDA RANCH035/24.726909EBRX -... .-. -..-
UVALDE296/35.728107EUVA ..- ...- .-

Airport Services

Airframe service: NONE
Powerplant service: NONE

Runway Information

Runway 15/33

Dimensions: 3150 x 60 ft. / 960 x 18 m
Surface: turf
RUNWAY 15  RUNWAY 33
Traffic pattern: leftleft
Obstructions: treesbrush

Airport Ownership and Management from official FAA records

Ownership: Privately-owned
Owner: ZACK DAVIS
BOX 555
BRACKETTVILLE, TX 78832
Phone (832) 563-5333
Manager: ZACK DAVIS
BOX 555
BRACKETTVILLE, TX 78832
Phone (832) 563-5333

Additional Remarks

FOR CD CTC LAUGHLIN APCH AT 830-298-4350, WHEN APCH CLSD CTC HOUSTON ARTCC AT 281-230-5622.

Instrument Procedures

There are no published instrument procedures at 5XS8.

Some nearby airports with instrument procedures:

KDLF - Laughlin AFB Airport (27 nm W)
KECU - Edwards County Airport (27 nm N)
KUVA - Garner Field Airport (34 nm SE)
KDRT - Del Rio International Airport (34 nm W)
5T9 - Maverick County Memorial International Airport (40 nm S)
 
Loc | Ops | Rwys | IFR | FBO | Links
Com | Nav | Svcs | Stats | Notes
Area around 5XS8 (L Davis Ranch Airport)
 
Road maps at: MapQuest Bing Google
 
Aerial photo
No photo
 
Sectional chart

 
Airport distance calculator
Flying to L Davis Ranch Airport? Find the distance to fly.

From to 5XS8

Sunrise and sunset
Times for 18-Sep-2020
 Local
(UTC-5)
 Zulu
(UTC)
Morning civil twilight07:0512:05
Sunrise07:2912:29
Sunset19:4100:41
Evening civil twilight20:0501:05

Current date and time
Zulu (UTC)  19-Sep-2020 04:05:56
Local (UTC-5)  18-Sep-2020 23:05:56
 
METAR
KDLF 
26nm W 
190356Z AUTO 04005KT 10SM FEW095 23/18 A3008 RMK AO2 SLP175 T02260179 CHINO RWY31 $
KECU 
27nm N 
190355Z AUTO 06005KT 10SM CLR 21/13 A3020 RMK AO2
KDRT 
33nm W 
190353Z AUTO 04007KT 10SM FEW100 27/16 A3007 RMK AO2 SLP165 T02670161 TSNO
KUVA 
34nm SE 
190355Z AUTO 05006KT 10SM CLR 23/16 A3010 RMK AO2 T02290156
TAF
KDLF 
26nm W 
190050Z 1900/2001 04005KT 9999 SCT040 BKN070 QNH2998INS BECMG 1908/1909 06005KT 9999 FEW040 SCT060 QNH3000INS BECMG 1916/1917 06010KT 9999 SCT060 QNH3007INS TX29/1900Z TN20/1911Z LAST NO AMDS AFT 1900 NEXT 2018
NOTAMs
Click for the latest NOTAMs
NOTAMs are issued by the DoD/FAA and will open in a separate window not controlled by AirNav.

 

 
 

Would you like to see your business listed on this page?

 If your business provides an interesting product or service to pilots, flight crews, aircraft, or users of the L Davis Ranch Airport, you should consider listing it here.  To start the listing process, click on the button below
 
Add a business
 

Other Pages about L Davis Ranch Airport

Update a link
 
Copyright © AirNav, LLC. All rights reserved. Privacy Policy  Contact